Time;durP1;ratioP1;P1;durP2;ratioP2;P2;SDS_P1;SDS_P2;PMS_P1;PMS_P2;Temp;Humidity;BMP_temperature;BMP_pressure;BME280_temperature;BME280_humidity;BME280_pressure;Samples;Min_cycle;Max_cycle;Signal;HPM_P1;HPM_P2
2022/04/17 07:57:50;;;;;;;;;5.50;4.00;;;;;;;;5101192;27;1688523;-72
2022/04/17 08:00:19;;;;;;;;;4.50;4.50;;;;;;;;5150116;27;21821;-72
2022/04/17 08:02:50;;;;;;;;;4.75;3.00;;;;;;;;5147026;27;11769;-70
2022/04/17 08:05:15;;;;;;;;;4.00;4.00;;;;;;;;5147307;27;11445;-72
2022/04/17 08:07:40;;;;;;;;;7.00;5.00;;;;;;;;5147103;27;11466;-72
2022/04/17 08:10:06;;;;;;;;;6.00;4.50;;;;;;;;5147420;27;9010;-70
2022/04/17 08:12:31;;;;;;;;;3.00;3.00;;;;;;;;5153977;27;12609;-73
2022/04/17 08:14:56;;;;;;;;;6.00;3.25;;;;;;;;5156929;27;11311;-72
2022/04/17 08:17:21;;;;;;;;;4.00;4.00;;;;;;;;5149261;27;11303;-73
2022/04/17 08:19:47;;;;;;;;;6.00;4.75;;;;;;;;5145315;27;11445;-75
2022/04/17 08:22:12;;;;;;;;;5.75;4.00;;;;;;;;5146338;27;11558;-76
2022/04/17 08:24:37;;;;;;;;;4.50;4.50;;;;;;;;5145094;27;11629;-75
2022/04/17 08:27:03;;;;;;;;;6.00;4.00;;;;;;;;5125793;27;11812;-75
2022/04/17 08:29:28;;;;;;;;;6.25;4.00;;;;;;;;5144038;27;11474;-72
2022/04/17 08:31:53;;;;;;;;;3.75;3.00;;;;;;;;5146149;27;8817;-79
2022/04/17 08:34:18;;;;;;;;;4.00;4.00;;;;;;;;5126020;27;9770;-77
2022/04/17 08:36:44;;;;;;;;;8.00;5.00;;;;;;;;5144536;27;10275;-77
2022/04/17 08:39:09;;;;;;;;;3.75;3.75;;;;;;;;5126666;27;11069;-72
2022/04/17 08:41:34;;;;;;;;;5.00;5.00;;;;;;;;5142961;27;11730;-72
2022/04/17 08:44:00;;;;;;;;;4.50;4.25;;;;;;;;5135304;27;11876;-72
2022/04/17 08:46:25;;;;;;;;;3.25;3.25;;;;;;;;5135442;27;11448;-72
2022/04/17 08:48:51;;;;;;;;;5.00;5.00;;;;;;;;5135322;27;10277;-72
2022/04/17 08:51:17;;;;;;;;;3.33;3.33;;;;;;;;5136269;27;11370;-73
2022/04/17 08:53:43;;;;;;;;;5.00;5.00;;;;;;;;5135470;27;11803;-72
2022/04/17 08:56:08;;;;;;;;;4.67;4.67;;;;;;;;5134972;27;11909;-73
2022/04/17 08:58:34;;;;;;;;;3.00;2.33;;;;;;;;5135177;27;11802;-73
2022/04/17 09:00:59;;;;;;;;;5.00;4.33;;;;;;;;5135285;27;11835;-72
2022/04/17 09:03:24;;;;;;;;;3.00;3.00;;;;;;;;5135432;27;8796;-73
2022/04/17 09:05:50;;;;;;;;;5.67;4.33;;;;;;;;5116441;27;11722;-73
2022/04/17 09:08:17;;;;;;;;;3.00;3.00;;;;;;;;5125697;27;11901;-74
2022/04/17 09:11:04;;;;;;;;;3.67;3.00;;;;;;;;5103080;28;13650;-72
2022/04/17 09:13:30;;;;;;;;;6.33;3.33;;;;;;;;5102655;28;9321;-72
2022/04/17 09:15:55;;;;;;;;;2.00;2.00;;;;;;;;5120603;28;11543;-73
2022/04/17 09:18:21;;;;;;;;;4.00;2.33;;;;;;;;5121938;28;11554;-72
2022/04/17 09:20:46;;;;;;;;;3.33;3.33;;;;;;;;5121909;28;11366;-72
2022/04/17 09:23:12;;;;;;;;;5.33;4.00;;;;;;;;5102930;28;12987;-73
2022/04/17 09:25:37;;;;;;;;;4.67;4.67;;;;;;;;5121002;28;11476;-72
2022/04/17 09:28:04;;;;;;;;;4.00;3.00;;;;;;;;5121438;28;11552;-72
2022/04/17 09:30:45;;;;;;;;;4.00;4.00;;;;;;;;5121120;28;10406;-72
2022/04/17 09:33:11;;;;;;;;;4.00;4.00;;;;;;;;5102083;28;8788;-72
2022/04/17 09:35:36;;;;;;;;;3.00;3.00;;;;;;;;5121576;28;8846;-72
2022/04/17 09:38:05;;;;;;;;;6.33;3.67;;;;;;;;5121638;28;9476;-73
2022/04/17 09:40:31;;;;;;;;;4.00;4.00;;;;;;;;5121395;28;11423;-72
2022/04/17 09:43:16;;;;;;;;;3.33;3.00;;;;;;;;5102745;28;14964;-73
2022/04/17 09:45:57;;;;;;;;;3.00;2.00;;;;;;;;5120977;28;10427;-70
2022/04/17 09:48:23;;;;;;;;;2.75;2.75;;;;;;;;5102429;28;9758;-72
2022/04/17 09:50:48;;;;;;;;;4.00;3.00;;;;;;;;5126934;27;11287;-73
2022/04/17 09:53:32;;;;;;;;;4.67;3.00;;;;;;;;5136626;27;11474;-73
2022/04/17 09:56:05;;;;;;;;;3.00;2.00;;;;;;;;5140046;27;8841;-74
2022/04/17 09:58:30;;;;;;;;;4.00;4.00;;;;;;;;5140498;27;10979;-73
2022/04/17 10:00:58;;;;;;;;;4.00;3.00;;;;;;;;5140842;27;10330;-73
2022/04/17 10:03:23;;;;;;;;;3.25;3.25;;;;;;;;5141372;27;8971;-73
2022/04/17 10:05:49;;;;;;;;;3.00;3.00;;;;;;;;5137261;27;11289;-74
2022/04/17 10:08:14;;;;;;;;;2.67;2.67;;;;;;;;5139907;27;8902;-71
2022/04/17 10:10:40;;;;;;;;;4.67;2.00;;;;;;;;5131649;27;11369;-72
2022/04/17 10:13:06;;;;;;;;;3.33;3.00;;;;;;;;5129394;27;11303;-71
2022/04/17 10:15:31;;;;;;;;;7.00;5.00;;;;;;;;5128516;27;11746;-72
2022/04/17 10:17:59;;;;;;;;;5.33;5.33;;;;;;;;5129971;27;10539;-72
2022/04/17 10:20:25;;;;;;;;;5.33;5.00;;;;;;;;5128161;27;11458;-72
2022/04/17 10:22:57;;;;;;;;;5.00;5.00;;;;;;;;5108838;27;9906;-72
2022/04/17 10:25:23;;;;;;;;;4.00;3.00;;;;;;;;5129210;27;8826;-71
2022/04/17 10:27:55;;;;;;;;;0.00;0.00;;;;;;;;5139894;27;9701;-72
2022/04/17 10:30:24;;;;;;;;;4.00;4.00;;;;;;;;5140983;27;9111;-73
2022/04/17 10:32:56;;;;;;;;;3.50;3.50;;;;;;;;5132254;27;9422;-77
2022/04/17 10:35:39;;;;;;;;;3.00;3.00;;;;;;;;5132194;27;11982;-74
2022/04/17 10:38:10;;;;;;;;;5.00;2.50;;;;;;;;5127364;27;10356;-72
2022/04/17 10:40:36;;;;;;;;;3.50;2.25;;;;;;;;5120899;28;11380;-72
2022/04/17 10:43:02;;;;;;;;;3.50;3.50;;;;;;;;5119911;28;11511;-72
2022/04/17 10:45:31;;;;;;;;;2.00;2.00;;;;;;;;5120088;28;8885;-73
2022/04/17 10:48:05;;;;;;;;;3.00;3.00;;;;;;;;5119768;28;11560;-73
2022/04/17 10:50:40;;;;;;;;;3.00;3.00;;;;;;;;5120501;28;10215;-72
2022/04/17 10:53:24;;;;;;;;;3.00;3.00;;;;;;;;5119770;28;10105;-72
2022/04/17 10:56:15;;;;;;;;;2.00;2.00;;;;;;;;5119376;28;10121;-73
2022/04/17 10:58:48;;;;;;;;;4.00;2.25;;;;;;;;5115668;28;11226;-73
2022/04/17 11:01:14;;;;;;;;;4.25;4.00;;;;;;;;5119762;28;11387;-73
2022/04/17 11:03:49;;;;;;;;;2.00;2.00;;;;;;;;5119158;28;10275;-73
2022/04/17 11:06:34;;;;;;;;;3.00;3.00;;;;;;;;5100853;28;10787;-71
2022/04/17 11:09:23;;;;;;;;;4.00;4.00;;;;;;;;5119656;28;10407;-72
2022/04/17 11:11:49;;;;;;;;;4.75;4.00;;;;;;;;5108298;28;11385;-72
2022/04/17 11:14:17;;;;;;;;;3.00;3.00;;;;;;;;5119540;28;10474;-73
2022/04/17 11:16:52;;;;;;;;;3.00;3.00;;;;;;;;5119374;28;10353;-72
2022/04/17 11:19:22;;;;;;;;;5.00;3.00;;;;;;;;5119723;28;10504;-72
2022/04/17 11:21:51;;;;;;;;;3.00;3.00;;;;;;;;5119722;28;10616;-72
2022/04/17 11:24:17;;;;;;;;;5.50;4.00;;;;;;;;5119743;28;10656;-73
2022/04/17 11:26:54;;;;;;;;;2.25;2.00;;;;;;;;5118923;28;10711;-72
2022/04/17 11:29:33;;;;;;;;;4.50;3.50;;;;;;;;5119914;28;10633;-72
2022/04/17 11:31:59;;;;;;;;;2.00;2.00;;;;;;;;5118668;27;11835;-72
2022/04/17 11:34:24;;;;;;;;;2.00;2.00;;;;;;;;5118766;28;11513;-72
2022/04/17 11:36:50;;;;;;;;;3.25;3.25;;;;;;;;5119138;28;9497;-73
2022/04/17 11:39:25;;;;;;;;;2.25;2.00;;;;;;;;5119674;28;11359;-72
2022/04/17 11:41:51;;;;;;;;;1.00;1.00;;;;;;;;5119402;28;11563;-72
2022/04/17 11:44:16;;;;;;;;;4.00;3.00;;;;;;;;5100284;28;10627;-72
2022/04/17 11:46:42;;;;;;;;;2.75;2.50;;;;;;;;5119207;28;9736;-73
2022/04/17 11:49:07;;;;;;;;;2.00;2.00;;;;;;;;5118978;28;11543;-73
2022/04/17 11:51:41;;;;;;;;;2.00;2.00;;;;;;;;5119355;28;8821;-72
2022/04/17 11:54:06;;;;;;;;;2.00;1.00;;;;;;;;5119125;28;8848;-73
2022/04/17 11:56:51;;;;;;;;;2.25;1.25;;;;;;;;5118751;28;10910;-73
2022/04/17 11:59:16;;;;;;;;;3.00;2.00;;;;;;;;5118720;28;9742;-72
2022/04/17 12:01:41;;;;;;;;;2.00;2.00;;;;;;;;5099909;28;13649;-71
2022/04/17 12:04:18;;;;;;;;;1.00;1.00;;;;;;;;5118982;28;8784;-72
2022/04/17 12:06:44;;;;;;;;;1.00;1.00;;;;;;;;5118375;28;9050;-72
2022/04/17 12:09:11;;;;;;;;;1.50;1.50;;;;;;;;5119034;28;11537;-72
2022/04/17 12:11:39;;;;;;;;;2.50;2.50;;;;;;;;5119486;28;9500;-72
2022/04/17 12:14:05;;;;;;;;;1.00;1.00;;;;;;;;5119075;28;11713;-72
2022/04/17 12:16:30;;;;;;;;;2.00;2.00;;;;;;;;5118996;28;11360;-72
2022/04/17 12:18:56;;;;;;;;;1.75;1.75;;;;;;;;5118793;28;8795;-72
2022/04/17 12:21:30;;;;;;;;;1.00;1.00;;;;;;;;5119120;28;11307;-72
2022/04/17 12:23:55;;;;;;;;;2.00;2.00;;;;;;;;5119244;28;8756;-73
2022/04/17 12:26:21;;;;;;;;;3.00;3.00;;;;;;;;5118887;28;11100;-72
2022/04/17 12:28:46;;;;;;;;;2.00;2.00;;;;;;;;5118735;28;8933;-72
2022/04/17 12:31:14;;;;;;;;;4.25;2.00;;;;;;;;5118752;28;8794;-73
2022/04/17 12:33:40;;;;;;;;;1.00;1.00;;;;;;;;5118869;28;8932;-71
2022/04/17 12:36:09;;;;;;;;;2.25;1.50;;;;;;;;5099956;28;12442;-72
2022/04/17 12:38:36;;;;;;;;;2.75;2.75;;;;;;;;5118834;28;11516;-72
2022/04/17 12:41:01;;;;;;;;;3.50;3.00;;;;;;;;5117957;28;11190;-72
2022/04/17 12:43:28;;;;;;;;;3.00;2.00;;;;;;;;5120260;27;11855;-73
2022/04/17 12:45:58;;;;;;;;;2.00;2.00;;;;;;;;5122340;28;9723;-72
2022/04/17 12:48:24;;;;;;;;;1.00;1.00;;;;;;;;5122631;28;10968;-72
2022/04/17 12:50:56;;;;;;;;;3.25;3.00;;;;;;;;5122169;28;11142;-73
2022/04/17 12:53:22;;;;;;;;;1.00;1.00;;;;;;;;5103431;28;10728;-72
2022/04/17 12:55:47;;;;;;;;;3.00;1.75;;;;;;;;5121023;28;11386;-72
2022/04/17 12:58:12;;;;;;;;;4.50;2.25;;;;;;;;5121254;28;11805;-72
2022/04/17 13:00:37;;;;;;;;;2.75;2.75;;;;;;;;5121639;28;10786;-71
2022/04/17 13:03:10;;;;;;;;;3.00;3.00;;;;;;;;5121362;28;10404;-72
2022/04/17 13:05:35;;;;;;;;;3.00;2.00;;;;;;;;5121688;28;11871;-73
2022/04/17 13:08:07;;;;;;;;;2.00;2.00;;;;;;;;5121596;28;11367;-72
2022/04/17 13:10:33;;;;;;;;;2.00;2.00;;;;;;;;5121385;28;8927;-71
2022/04/17 13:12:58;;;;;;;;;5.75;3.00;;;;;;;;5122205;28;11384;-73
2022/04/17 13:15:33;;;;;;;;;2.00;2.00;;;;;;;;5121969;28;12028;-73
2022/04/17 13:17:59;;;;;;;;;2.50;2.00;;;;;;;;5121843;28;10623;-72
2022/04/17 13:20:27;;;;;;;;;3.50;3.00;;;;;;;;5121937;28;11356;-73
2022/04/17 13:22:52;;;;;;;;;1.00;1.00;;;;;;;;5121724;28;8768;-73
2022/04/17 13:25:18;;;;;;;;;3.00;1.50;;;;;;;;5121587;28;11367;-72
2022/04/17 13:27:44;;;;;;;;;1.75;1.25;;;;;;;;5122113;28;11291;-72
2022/04/17 13:30:10;;;;;;;;;3.25;2.00;;;;;;;;5121437;28;12394;-72
2022/04/17 13:32:37;;;;;;;;;3.75;2.00;;;;;;;;5120855;28;11912;-71
2022/04/17 13:35:02;;;;;;;;;1.50;1.50;;;;;;;;5102614;28;11404;-73
2022/04/17 13:40:12;;;;;;;;;3.00;2.00;;;;;;;;5121020;28;11340;-74
2022/04/17 13:42:38;;;;;;;;;2.25;2.25;;;;;;;;5121391;28;11523;-74
2022/04/17 13:45:07;;;;;;;;;3.25;3.00;;;;;;;;5102569;28;11735;-73
2022/04/17 13:47:33;;;;;;;;;2.75;1.25;;;;;;;;5121511;28;12257;-74
2022/04/17 13:49:58;;;;;;;;;2.75;1.75;;;;;;;;5121043;28;11339;-73
2022/04/17 13:52:25;;;;;;;;;3.00;3.00;;;;;;;;5121681;28;9522;-72
2022/04/17 13:54:50;;;;;;;;;2.00;2.00;;;;;;;;5120968;27;11439;-72
2022/04/17 13:57:16;;;;;;;;;2.00;2.00;;;;;;;;5120465;28;12016;-72
2022/04/17 13:59:41;;;;;;;;;3.50;3.00;;;;;;;;5108185;27;8874;-71
2022/04/17 14:02:06;;;;;;;;;2.50;2.25;;;;;;;;5131478;27;10342;-72
2022/04/17 14:04:31;;;;;;;;;3.25;2.00;;;;;;;;5131520;27;11338;-72
2022/04/17 14:06:57;;;;;;;;;4.00;2.00;;;;;;;;5129347;27;11313;-72
2022/04/17 14:09:22;;;;;;;;;2.00;2.00;;;;;;;;5132516;27;8888;-71
2022/04/17 14:11:47;;;;;;;;;4.50;2.75;;;;;;;;5130745;27;8786;-72
2022/04/17 14:14:13;;;;;;;;;2.00;2.00;;;;;;;;5130738;27;11322;-72
2022/04/17 14:16:38;;;;;;;;;3.00;2.00;;;;;;;;5128863;27;11304;-72
2022/04/17 14:19:03;;;;;;;;;3.00;2.00;;;;;;;;5130353;27;8846;-72
2022/04/17 14:21:29;;;;;;;;;2.25;2.25;;;;;;;;5131539;27;8806;-73
2022/04/17 14:23:54;;;;;;;;;3.00;3.00;;;;;;;;5131990;27;12609;-73
2022/04/17 14:26:21;;;;;;;;;1.00;1.00;;;;;;;;5110922;27;11679;-72
2022/04/17 14:28:46;;;;;;;;;2.00;2.00;;;;;;;;5130932;27;8903;-73
2022/04/17 14:31:11;;;;;;;;;2.00;2.00;;;;;;;;5130778;27;12083;-72
2022/04/17 14:33:37;;;;;;;;;2.00;1.00;;;;;;;;5129157;27;8788;-71
2022/04/17 14:36:02;;;;;;;;;2.00;2.00;;;;;;;;5112591;27;10177;-72
2022/04/17 14:38:27;;;;;;;;;1.25;1.25;;;;;;;;5129868;27;8942;-72
2022/04/17 14:40:53;;;;;;;;;1.00;1.00;;;;;;;;5134788;27;12710;-72
2022/04/17 14:43:18;;;;;;;;;2.00;1.75;;;;;;;;5141625;27;8806;-72
2022/04/17 14:45:47;;;;;;;;;2.00;2.00;;;;;;;;5138073;27;11918;-71
2022/04/17 14:48:12;;;;;;;;;3.50;1.25;;;;;;;;5127773;27;9058;-71
2022/04/17 14:50:38;;;;;;;;;1.50;1.00;;;;;;;;5128455;27;11565;-71
2022/04/17 14:53:03;;;;;;;;;1.25;1.25;;;;;;;;5131227;27;11818;-72
2022/04/17 14:55:28;;;;;;;;;2.25;2.25;;;;;;;;5126247;27;8824;-72
2022/04/17 14:57:54;;;;;;;;;2.00;1.25;;;;;;;;5112050;27;10886;-72
2022/04/17 15:00:19;;;;;;;;;2.50;2.00;;;;;;;;5130313;27;9555;-72
2022/04/17 15:02:44;;;;;;;;;2.25;2.00;;;;;;;;5128953;27;10298;-72
2022/04/17 15:05:10;;;;;;;;;1.00;1.00;;;;;;;;5123976;27;8888;-71
2022/04/17 15:07:35;;;;;;;;;2.00;2.00;;;;;;;;5130052;27;10243;-72
2022/04/17 15:10:01;;;;;;;;;1.00;1.00;;;;;;;;5131548;27;8830;-70
2022/04/17 15:12:26;;;;;;;;;2.00;2.00;;;;;;;;5128403;27;8823;-72
2022/04/17 15:14:52;;;;;;;;;3.00;1.75;;;;;;;;5129095;27;8798;-70
2022/04/17 15:17:18;;;;;;;;;1.75;1.75;;;;;;;;5129960;27;11369;-71
